createdAt,value
2023-03-29T00:02:30.711Z,80.68
2023-03-29T00:05:05.896Z,80.26
2023-03-29T00:07:33.679Z,79.18
2023-03-29T00:10:04.835Z,78.82
2023-03-29T00:12:36.557Z,80.36
2023-03-29T00:15:11.291Z,78.65
2023-03-29T00:17:38.561Z,78.81
2023-03-29T00:20:10.481Z,78.00
2023-03-29T00:22:40.138Z,78.48
2023-03-29T00:25:08.311Z,77.08
2023-03-29T00:27:35.945Z,78.21
2023-03-29T00:30:07.331Z,78.71
2023-03-29T00:32:35.897Z,77.89
2023-03-29T00:35:05.987Z,78.06
2023-03-29T00:37:33.970Z,77.34
2023-03-29T00:40:05.055Z,78.09
2023-03-29T00:42:35.133Z,77.44
2023-03-29T00:45:08.885Z,77.96
2023-03-29T00:47:42.305Z,77.48
2023-03-29T00:50:17.471Z,77.38
2023-03-29T00:52:48.741Z,77.80
2023-03-29T00:55:19.506Z,77.78
2023-03-29T00:57:47.362Z,77.12
2023-03-29T01:00:18.713Z,77.55
2023-03-29T01:02:54.662Z,77.26
2023-03-29T01:05:25.972Z,77.63
2023-03-29T01:07:58.944Z,76.88
2023-03-29T01:10:42.726Z,76.72
2023-03-29T01:13:16.223Z,77.42
2023-03-29T01:15:46.852Z,77.45
2023-03-29T01:18:15.541Z,77.26
2023-03-29T01:21:05.169Z,76.89
2023-03-29T01:23:58.763Z,76.80
2023-03-29T01:26:36.363Z,77.09
2023-03-29T01:29:12.510Z,77.92
2023-03-29T01:31:45.353Z,77.70
2023-03-29T01:34:19.870Z,77.55
2023-03-29T01:36:51.406Z,77.60
2023-03-29T01:39:19.486Z,77.36
2023-03-29T01:41:56.747Z,76.83
2023-03-29T01:44:31.793Z,78.07
2023-03-29T01:47:08.684Z,78.37
2023-03-29T01:49:42.752Z,77.40
2023-03-29T01:52:16.041Z,78.02
2023-03-29T01:54:50.086Z,77.56
2023-03-29T01:57:19.850Z,77.58
2023-03-29T01:59:50.052Z,78.00
2023-03-29T02:02:19.305Z,77.95
2023-03-29T02:04:53.334Z,77.24
2023-03-29T02:07:24.889Z,77.46
2023-03-29T02:09:54.461Z,77.73
2023-03-29T02:12:22.259Z,77.49
2023-03-29T02:14:51.100Z,77.75
2023-03-29T02:17:22.851Z,78.25
2023-03-29T02:19:58.057Z,77.76
2023-03-29T02:22:29.793Z,77.31
2023-03-29T02:25:11.652Z,77.77
2023-03-29T02:27:39.571Z,78.26
2023-03-29T02:30:12.960Z,77.61
2023-03-29T02:32:49.512Z,78.02
2023-03-29T02:35:22.182Z,77.29
2023-03-29T02:37:54.598Z,77.51
2023-03-29T02:40:23.632Z,77.81
2023-03-29T02:42:50.849Z,77.78
2023-03-29T02:45:19.921Z,77.59
2023-03-29T02:47:53.067Z,77.42
2023-03-29T02:50:21.622Z,76.85
2023-03-29T02:52:53.639Z,77.09
2023-03-29T02:55:25.612Z,76.54
2023-03-29T02:57:52.602Z,77.22
2023-03-29T03:00:23.236Z,77.03
2023-03-29T03:02:53.215Z,77.35
2023-03-29T03:05:23.987Z,77.98
2023-03-29T03:07:51.963Z,77.75
2023-03-29T03:10:19.288Z,78.83
2023-03-29T03:12:46.648Z,77.91
2023-03-29T03:15:13.606Z,77.06
2023-03-29T03:17:42.364Z,77.42
2023-03-29T03:20:14.013Z,76.78
2023-03-29T03:22:45.711Z,76.76
2023-03-29T03:25:15.083Z,77.57
2023-03-29T03:27:45.115Z,77.90
2023-03-29T03:30:16.140Z,76.80
2023-03-29T03:32:44.976Z,77.80
2023-03-29T03:35:13.039Z,77.10
2023-03-29T03:37:40.629Z,77.87
2023-03-29T03:40:10.445Z,77.62
2023-03-29T03:42:38.897Z,77.54
2023-03-29T03:45:08.426Z,77.60
2023-03-29T03:47:37.409Z,77.62
2023-03-29T03:50:08.731Z,78.18
2023-03-29T03:52:35.793Z,78.46
2023-03-29T03:55:05.289Z,77.56
2023-03-29T03:57:33.311Z,77.49
2023-03-29T04:00:02.355Z,77.63
2023-03-29T04:02:29.725Z,78.39
2023-03-29T04:04:57.067Z,77.41
2023-03-29T04:07:27.731Z,77.96
2023-03-29T04:09:55.198Z,77.99
2023-03-29T04:12:22.300Z,77.82
2023-03-29T04:14:52.758Z,77.38
2023-03-29T04:17:20.253Z,77.96
2023-03-29T04:19:47.365Z,78.06
2023-03-29T04:22:15.615Z,77.57
2023-03-29T04:24:44.162Z,77.69
2023-03-29T04:27:13.542Z,77.42
2023-03-29T04:29:43.529Z,78.43
2023-03-29T04:32:20.779Z,77.55
2023-03-29T04:34:48.006Z,78.89
2023-03-29T04:37:16.378Z,78.13
2023-03-29T04:39:47.683Z,78.18
2023-03-29T04:42:15.181Z,78.36
2023-03-29T04:44:43.972Z,78.91
2023-03-29T04:47:14.809Z,79.10
2023-03-29T04:49:43.077Z,77.69
2023-03-29T04:52:09.859Z,77.89
2023-03-29T04:54:40.144Z,78.61
2023-03-29T04:57:09.236Z,78.37
2023-03-29T04:59:36.558Z,77.51
2023-03-29T05:02:05.086Z,78.19
2023-03-29T05:04:36.593Z,77.42
2023-03-29T05:07:04.550Z,77.07
2023-03-29T05:09:34.312Z,77.85
2023-03-29T05:12:02.694Z,78.21
2023-03-29T05:14:33.566Z,77.72
2023-03-29T05:17:01.418Z,77.61
2023-03-29T05:19:28.441Z,77.08
2023-03-29T05:22:18.010Z,76.74
2023-03-29T05:25:46.158Z,76.89
2023-03-29T05:28:28.853Z,77.61
2023-03-29T05:31:09.487Z,78.09
2023-03-29T05:33:37.012Z,76.73
2023-03-29T05:36:06.734Z,77.73
2023-03-29T05:39:00.354Z,77.53
2023-03-29T05:41:29.936Z,77.43
2023-03-29T05:43:58.641Z,77.52
2023-03-29T05:46:35.746Z,77.02
2023-03-29T05:49:14.683Z,76.43
2023-03-29T05:51:52.528Z,76.90
2023-03-29T05:54:45.630Z,76.50
2023-03-29T05:57:22.404Z,76.76
2023-03-29T06:00:24.103Z,77.73
2023-03-29T06:02:54.029Z,76.83
2023-03-29T06:05:22.718Z,77.38
2023-03-29T06:07:52.685Z,76.99
2023-03-29T06:10:26.700Z,77.70
2023-03-29T06:12:58.644Z,77.52
2023-03-29T06:15:27.470Z,77.86
2023-03-29T06:18:19.174Z,76.49
2023-03-29T06:20:49.289Z,76.59
2023-03-29T06:23:20.004Z,76.52
2023-03-29T06:25:51.754Z,76.53
2023-03-29T06:28:21.282Z,76.35
2023-03-29T06:30:50.390Z,75.93
2023-03-29T06:33:20.741Z,76.34
2023-03-29T06:35:49.644Z,76.18
2023-03-29T06:38:17.256Z,76.78
2023-03-29T06:40:45.718Z,76.43
2023-03-29T06:43:14.131Z,76.87
2023-03-29T06:45:44.838Z,77.52
2023-03-29T06:48:13.347Z,77.16
2023-03-29T06:50:54.806Z,76.75
2023-03-29T06:53:24.493Z,76.79
2023-03-29T06:55:54.235Z,76.79
2023-03-29T06:58:25.815Z,76.95
2023-03-29T07:01:04.015Z,75.60
2023-03-29T07:03:47.779Z,76.26
2023-03-29T07:06:20.770Z,76.92
2023-03-29T07:08:54.720Z,76.68
2023-03-29T07:11:23.279Z,77.21
2023-03-29T07:13:51.311Z,77.95
2023-03-29T07:16:24.520Z,78.26
2023-03-29T07:18:55.269Z,76.87
2023-03-29T07:21:43.340Z,77.60
2023-03-29T07:24:11.539Z,76.94
2023-03-29T07:27:00.130Z,75.74
2023-03-29T07:29:37.375Z,76.39
2023-03-29T07:32:08.246Z,75.67
2023-03-29T07:34:48.716Z,77.25
2023-03-29T07:37:21.005Z,76.70
2023-03-29T07:39:52.490Z,78.28
2023-03-29T07:45:09.213Z,77.13
2023-03-29T07:47:37.526Z,78.23
2023-03-29T07:50:13.109Z,77.21
2023-03-29T07:53:10.849Z,78.12
2023-03-29T07:56:12.547Z,77.34
2023-03-29T07:58:48.344Z,76.32
2023-03-29T08:04:26.038Z,77.89
2023-03-29T08:06:59.096Z,76.30
2023-03-29T08:09:39.012Z,77.65
2023-03-29T08:12:18.173Z,77.37
2023-03-29T08:14:48.301Z,76.15
2023-03-29T08:17:17.328Z,75.55
2023-03-29T08:19:51.235Z,76.15
2023-03-29T08:22:19.834Z,76.73
2023-03-29T08:24:48.218Z,77.81
2023-03-29T08:27:17.678Z,77.94
2023-03-29T08:29:44.984Z,75.43
2023-03-29T08:32:16.546Z,76.38
2023-03-29T08:35:05.856Z,76.82
2023-03-29T08:37:33.342Z,75.14
2023-03-29T08:40:07.805Z,75.20
2023-03-29T08:42:56.752Z,74.79
2023-03-29T08:45:32.098Z,74.32
2023-03-29T08:48:11.443Z,76.00
2023-03-29T08:50:46.577Z,76.29
2023-03-29T08:53:28.066Z,75.20
2023-03-29T08:56:03.893Z,74.25
2023-03-29T09:01:37.996Z,75.69
2023-03-29T09:04:10.444Z,75.88
2023-03-29T09:09:36.372Z,76.21
2023-03-29T09:12:13.928Z,76.97
2023-03-29T09:14:57.629Z,75.92
2023-03-29T09:17:44.549Z,75.63
2023-03-29T09:20:44.430Z,76.65
2023-03-29T09:23:45.082Z,76.07
2023-03-29T09:26:23.865Z,75.27
2023-03-29T09:29:07.663Z,74.73
2023-03-29T09:31:50.616Z,74.98
2023-03-29T09:34:22.897Z,74.18
2023-03-29T09:37:03.357Z,73.43
2023-03-29T09:39:32.349Z,74.98
2023-03-29T09:42:08.235Z,75.64
2023-03-29T09:44:47.875Z,75.48
2023-03-29T09:47:22.162Z,74.91
2023-03-29T09:49:52.709Z,75.39
2023-03-29T09:52:22.780Z,76.57
2023-03-29T09:54:53.572Z,75.90
2023-03-29T09:57:21.094Z,74.10
2023-03-29T09:59:54.857Z,75.66
2023-03-29T10:02:23.730Z,74.91
2023-03-29T10:04:58.915Z,74.93
2023-03-29T10:07:44.465Z,74.21
2023-03-29T10:10:22.755Z,73.20
2023-03-29T10:13:31.262Z,74.91
2023-03-29T10:16:30.117Z,74.49
2023-03-29T10:19:16.683Z,74.29
2023-03-29T10:21:54.945Z,73.76
2023-03-29T10:24:39.222Z,76.02
2023-03-29T10:27:12.123Z,74.70
2023-03-29T10:29:45.659Z,74.49
2023-03-29T10:32:27.804Z,74.75
2023-03-29T10:35:20.595Z,74.70
2023-03-29T10:38:16.095Z,74.48
2023-03-29T10:40:54.398Z,74.74
2023-03-29T10:43:56.299Z,75.20
2023-03-29T10:47:00.128Z,75.97
2023-03-29T10:52:21.963Z,74.61
2023-03-29T10:54:55.250Z,75.03
2023-03-29T10:57:43.989Z,76.01
2023-03-29T11:00:32.044Z,71.88
2023-03-29T11:03:43.849Z,72.99
2023-03-29T11:06:42.435Z,71.00
2023-03-29T11:09:31.093Z,70.00
2023-03-29T11:12:28.840Z,72.96
2023-03-29T11:15:34.598Z,74.02
2023-03-29T11:18:20.911Z,71.99
2023-03-29T11:20:52.953Z,73.33
2023-03-29T11:23:46.647Z,73.21
2023-03-29T11:26:27.744Z,72.55
2023-03-29T11:29:03.163Z,73.74
2023-03-29T11:31:40.086Z,74.70
2023-03-29T11:34:31.048Z,75.25
2023-03-29T11:37:07.923Z,74.13
2023-03-29T11:40:16.984Z,74.62
2023-03-29T11:47:04.022Z,73.18
2023-03-29T11:50:54.371Z,74.29
2023-03-29T11:53:44.711Z,74.52
2023-03-29T11:56:17.859Z,73.57
2023-03-29T11:59:13.723Z,73.99
2023-03-29T12:01:50.742Z,72.22
2023-03-29T12:05:02.588Z,72.42
2023-03-29T12:07:36.240Z,73.11
2023-03-29T12:10:22.344Z,74.11
2023-03-29T12:13:00.299Z,73.29
2023-03-29T12:15:36.053Z,75.24
2023-03-29T12:18:18.654Z,74.05
2023-03-29T12:21:12.551Z,74.39
2023-03-29T12:23:43.984Z,76.08
2023-03-29T12:26:34.316Z,75.80
2023-03-29T12:29:20.981Z,77.28
2023-03-29T12:32:06.988Z,76.44
2023-03-29T12:35:07.898Z,77.52
2023-03-29T12:37:45.119Z,77.24
2023-03-29T12:40:18.430Z,78.83
2023-03-29T12:42:52.082Z,77.79
2023-03-29T12:45:33.088Z,76.37
2023-03-29T12:48:03.946Z,76.02
2023-03-29T12:50:48.861Z,75.66
2023-03-29T12:53:22.293Z,77.00
2023-03-29T12:55:55.490Z,78.18
2023-03-29T12:58:38.778Z,78.52
2023-03-29T13:01:22.812Z,76.72
2023-03-29T13:04:06.623Z,76.72
2023-03-29T13:06:52.287Z,77.22
2023-03-29T13:09:35.918Z,77.94
2023-03-29T13:12:24.822Z,77.73
2023-03-29T13:15:08.512Z,77.06
2023-03-29T13:17:51.178Z,76.67
2023-03-29T13:20:39.875Z,77.30
2023-03-29T13:23:27.226Z,78.10
2023-03-29T13:26:17.548Z,78.74
2023-03-29T13:29:12.153Z,77.77
2023-03-29T13:31:44.573Z,76.32
2023-03-29T13:34:24.763Z,76.76
2023-03-29T13:37:04.146Z,75.89
2023-03-29T13:39:36.935Z,74.70
2023-03-29T13:42:19.457Z,75.62
2023-03-29T13:44:50.372Z,75.33
2023-03-29T13:47:43.162Z,75.31
2023-03-29T13:50:20.732Z,74.34
2023-03-29T13:53:01.708Z,73.35
2023-03-29T13:55:43.778Z,73.68
2023-03-29T13:58:18.413Z,73.49
2023-03-29T14:00:51.393Z,74.38
2023-03-29T14:03:26.385Z,75.09
2023-03-29T14:06:02.684Z,75.52
2023-03-29T14:08:39.603Z,76.29
2023-03-29T14:11:12.649Z,76.33
2023-03-29T14:13:43.373Z,76.88
2023-03-29T14:16:15.034Z,76.79
2023-03-29T14:18:48.112Z,74.86
2023-03-29T14:21:17.575Z,75.15
2023-03-29T14:23:50.251Z,75.94
2023-03-29T14:26:25.186Z,73.94
2023-03-29T14:29:03.080Z,74.71
2023-03-29T14:31:32.899Z,74.41
2023-03-29T14:34:07.869Z,74.50
2023-03-29T14:36:39.246Z,74.48
2023-03-29T14:39:22.870Z,73.03
2023-03-29T14:42:01.063Z,73.10
2023-03-29T14:44:32.095Z,75.01
2023-03-29T14:47:01.173Z,74.26
2023-03-29T14:49:32.297Z,75.65
2023-03-29T14:52:13.487Z,75.29
2023-03-29T14:54:44.411Z,75.17
2023-03-29T14:57:16.695Z,73.92
2023-03-29T14:59:50.449Z,75.30
2023-03-29T15:02:26.819Z,74.11
2023-03-29T15:05:04.888Z,74.96
2023-03-29T15:07:35.500Z,75.07
2023-03-29T15:10:07.903Z,74.57
2023-03-29T15:12:38.256Z,75.58
2023-03-29T15:15:33.366Z,73.89
2023-03-29T15:18:02.413Z,74.18
2023-03-29T15:20:33.804Z,73.44
2023-03-29T15:23:25.062Z,72.66
2023-03-29T15:25:56.764Z,72.88
2023-03-29T15:28:31.391Z,70.69
2023-03-29T15:33:36.210Z,74.11
2023-03-29T15:36:22.824Z,73.86
2023-03-29T15:38:51.838Z,73.76
2023-03-29T15:41:19.219Z,74.44
2023-03-29T15:43:47.131Z,74.64
2023-03-29T15:46:23.166Z,75.17
2023-03-29T15:48:50.700Z,75.04
2023-03-29T15:51:19.028Z,74.72
2023-03-29T15:53:46.178Z,74.28
2023-03-29T15:56:18.659Z,75.84
2023-03-29T15:58:47.629Z,76.82
2023-03-29T16:01:23.824Z,76.55
2023-03-29T16:03:51.516Z,76.26
2023-03-29T16:06:22.196Z,75.82
2023-03-29T16:08:49.848Z,76.88
2023-03-29T16:11:19.456Z,77.13
2023-03-29T16:13:46.614Z,76.95
2023-03-29T16:16:14.157Z,76.28
2023-03-29T16:18:41.551Z,76.97
2023-03-29T16:21:13.500Z,77.17
2023-03-29T16:23:40.879Z,76.15
2023-03-29T16:26:08.450Z,76.87
2023-03-29T16:28:38.047Z,77.24
2023-03-29T16:31:11.120Z,77.35
2023-03-29T16:33:38.781Z,78.17
2023-03-29T16:36:08.119Z,77.88
2023-03-29T16:38:35.720Z,77.82
2023-03-29T16:41:03.172Z,78.78
2023-03-29T16:43:33.752Z,78.17
2023-03-29T16:46:04.373Z,77.71
2023-03-29T16:48:35.189Z,77.39
2023-03-29T16:51:05.503Z,78.05
2023-03-29T16:53:34.803Z,78.05
2023-03-29T16:56:02.747Z,78.43
2023-03-29T16:58:33.536Z,78.21
2023-03-29T17:01:10.233Z,77.87
2023-03-29T17:03:38.771Z,78.12
2023-03-29T17:06:16.609Z,77.22
2023-03-29T17:08:44.216Z,77.21
2023-03-29T17:11:13.165Z,77.63
2023-03-29T17:13:40.481Z,77.80
2023-03-29T17:16:09.604Z,78.18
2023-03-29T17:18:40.249Z,77.84
2023-03-29T17:21:08.489Z,77.61
2023-03-29T17:23:36.055Z,77.72
2023-03-29T17:26:03.746Z,77.83
2023-03-29T17:28:31.479Z,77.56
2023-03-29T17:31:03.895Z,77.88
2023-03-29T17:33:32.737Z,78.38
2023-03-29T17:35:59.838Z,77.93
2023-03-29T17:38:28.910Z,78.47
2023-03-29T17:40:57.182Z,78.87
2023-03-29T17:43:27.386Z,78.68
2023-03-29T17:45:54.955Z,79.24
2023-03-29T17:48:23.752Z,78.71
2023-03-29T17:50:55.241Z,79.01
2023-03-29T17:53:46.498Z,79.69
2023-03-29T17:56:20.344Z,79.77
2023-03-29T17:58:54.380Z,79.69
2023-03-29T18:01:21.509Z,79.54
2023-03-29T18:03:52.754Z,80.01
2023-03-29T18:06:33.002Z,80.25
2023-03-29T18:09:06.123Z,80.25
2023-03-29T18:11:41.300Z,80.46
2023-03-29T18:14:21.703Z,80.68
2023-03-29T18:17:13.700Z,81.14
2023-03-29T18:20:18.580Z,80.80
2023-03-29T18:25:39.058Z,81.43
2023-03-29T18:28:18.599Z,81.53
2023-03-29T18:30:51.309Z,82.18
2023-03-29T18:33:18.742Z,81.91
2023-03-29T18:35:50.570Z,81.93
2023-03-29T18:38:21.622Z,82.29
2023-03-29T18:40:50.759Z,82.64
2023-03-29T18:43:18.188Z,82.52
2023-03-29T18:45:45.689Z,82.90
2023-03-29T18:48:19.876Z,83.08
2023-03-29T18:50:51.461Z,83.39
2023-03-29T18:53:22.447Z,83.39
2023-03-29T18:55:51.968Z,83.39
2023-03-29T18:58:24.127Z,83.58
2023-03-29T19:00:54.804Z,83.53
2023-03-29T19:03:22.708Z,83.58
2023-03-29T19:05:55.537Z,83.62
2023-03-29T19:08:26.791Z,83.39
2023-03-29T19:11:00.771Z,83.20
2023-03-29T19:13:28.250Z,83.77
2023-03-29T19:15:56.722Z,84.29
2023-03-29T19:18:23.801Z,83.65
2023-03-29T19:20:52.676Z,83.82
2023-03-29T19:23:21.377Z,84.43
2023-03-29T19:25:54.247Z,84.39
2023-03-29T19:28:21.795Z,84.05
2023-03-29T19:30:49.806Z,84.05
2023-03-29T19:33:17.321Z,84.47
2023-03-29T19:35:44.728Z,84.07
2023-03-29T19:38:12.646Z,84.17
2023-03-29T19:40:39.667Z,84.78
2023-03-29T19:43:09.212Z,84.66
2023-03-29T19:45:36.413Z,84.40
2023-03-29T19:48:05.410Z,84.69
2023-03-29T19:50:32.590Z,84.66
2023-03-29T19:53:04.139Z,85.11
2023-03-29T19:55:31.175Z,85.28
2023-03-29T19:58:01.399Z,85.20
2023-03-29T20:00:39.798Z,85.51
2023-03-29T20:03:11.296Z,85.39
2023-03-29T20:05:39.286Z,85.60
2023-03-29T20:08:07.152Z,85.64
2023-03-29T20:10:35.679Z,85.57
2023-03-29T20:13:03.812Z,85.64
2023-03-29T20:15:35.464Z,85.51
2023-03-29T20:18:08.153Z,85.76
2023-03-29T20:20:35.774Z,85.64
2023-03-29T20:23:05.229Z,85.32
2023-03-29T20:25:33.173Z,85.70
2023-03-29T20:28:04.018Z,85.85
2023-03-29T20:30:36.378Z,85.32
2023-03-29T20:33:04.862Z,85.17
2023-03-29T20:35:32.252Z,85.52
2023-03-29T20:37:59.582Z,84.91
2023-03-29T20:40:28.837Z,85.33
2023-03-29T20:42:56.826Z,84.94
2023-03-29T20:45:24.209Z,84.49
2023-03-29T20:48:04.553Z,84.59
2023-03-29T20:50:32.200Z,85.00
2023-03-29T20:53:03.819Z,84.91
2023-03-29T20:55:35.234Z,85.21
2023-03-29T20:58:02.686Z,85.12
2023-03-29T21:00:34.013Z,84.87
2023-03-29T21:03:09.369Z,85.73
2023-03-29T21:05:37.045Z,85.20
2023-03-29T21:08:04.506Z,84.88
2023-03-29T21:10:31.947Z,85.53
2023-03-29T21:13:00.885Z,85.51
2023-03-29T21:15:32.178Z,85.33
2023-03-29T21:17:59.863Z,85.50
2023-03-29T21:20:28.734Z,85.69
2023-03-29T21:22:58.154Z,85.79
2023-03-29T21:25:25.605Z,85.77
2023-03-29T21:27:55.459Z,85.65
2023-03-29T21:30:22.813Z,85.64
2023-03-29T21:32:50.133Z,86.19
2023-03-29T21:35:17.805Z,86.53
2023-03-29T21:37:47.001Z,86.20
2023-03-29T21:40:20.113Z,86.06
2023-03-29T21:42:47.949Z,86.34
2023-03-29T21:45:15.201Z,86.18
2023-03-29T21:47:42.523Z,86.40
2023-03-29T21:50:13.833Z,85.82
2023-03-29T21:52:41.471Z,85.99
2023-03-29T21:55:10.209Z,85.67
2023-03-29T21:57:37.381Z,85.50
2023-03-29T22:00:11.158Z,85.30
2023-03-29T22:02:39.202Z,85.72
2023-03-29T22:05:07.184Z,85.64
2023-03-29T22:07:38.818Z,85.43
2023-03-29T22:10:12.511Z,84.60
2023-03-29T22:12:41.374Z,84.58
2023-03-29T22:15:13.604Z,83.82
2023-03-29T22:17:43.039Z,84.11
2023-03-29T22:20:13.333Z,83.42
2023-03-29T22:22:44.900Z,83.43
2023-03-29T22:25:16.154Z,82.92
2023-03-29T22:27:44.235Z,82.84
2023-03-29T22:30:11.734Z,82.99
2023-03-29T22:32:39.050Z,82.88
2023-03-29T22:35:09.027Z,82.79
2023-03-29T22:37:40.626Z,82.36
2023-03-29T22:40:10.310Z,81.78
2023-03-29T22:42:39.094Z,81.49
2023-03-29T22:45:07.563Z,81.42
2023-03-29T22:47:35.651Z,81.29
2023-03-29T22:50:02.346Z,80.88
2023-03-29T22:52:31.677Z,80.79
2023-03-29T22:54:58.833Z,80.79
2023-03-29T22:57:26.170Z,80.44
2023-03-29T22:59:54.882Z,80.38
2023-03-29T23:02:21.851Z,80.22
2023-03-29T23:04:49.514Z,80.44
2023-03-29T23:07:17.510Z,80.43
2023-03-29T23:09:45.659Z,80.83
2023-03-29T23:12:16.130Z,80.59
2023-03-29T23:14:45.300Z,80.14
2023-03-29T23:17:13.916Z,80.57
2023-03-29T23:19:41.694Z,79.62
2023-03-29T23:22:28.810Z,80.55
2023-03-29T23:24:56.250Z,79.80
2023-03-29T23:27:23.703Z,80.25
2023-03-29T23:29:51.092Z,79.48
2023-03-29T23:32:21.060Z,79.28
2023-03-29T23:34:48.428Z,79.71
2023-03-29T23:37:15.569Z,79.37
2023-03-29T23:39:43.702Z,79.21
2023-03-29T23:42:11.122Z,78.91
2023-03-29T23:44:38.647Z,78.67
2023-03-29T23:47:06.280Z,77.91
2023-03-29T23:49:36.297Z,77.85
2023-03-29T23:52:06.129Z,75.94
2023-03-29T23:54:33.643Z,73.76
2023-03-29T23:57:02.793Z,73.46
2023-03-29T23:59:37.884Z,72.99
